Time;durP1;ratioP1;P1;durP2;ratioP2;P2;SDS_P1;SDS_P2;PMS_P1;PMS_P2;Temp;Humidity;BMP_temperature;BMP_pressure;BME280_temperature;BME280_humidity;BME280_pressure;Samples;Min_cycle;Max_cycle;Signal;HPM_P1;HPM_P2
2023/01/19 00:00:27;;;;;;;6.82;4.22;;;;;;;18.65;65.62;96921.84;2097677;28;20044;-49
2023/01/19 00:01:28;;;;;;;;;;;;;;;18.57;65.82;96926.84;2089981;28;20059;-46
2023/01/19 00:02:29;;;;;;;6.65;4.55;;;;;;;18.58;65.79;96925.75;2088208;28;19935;-47
2023/01/19 00:03:31;;;;;;;;;;;;;;;18.50;65.93;96922.44;2089184;28;20056;-48
2023/01/19 00:04:32;;;;;;;10.23;4.65;;;;;;;18.56;66.12;96919.84;2085429;28;19924;-47
2023/01/19 00:05:35;;;;;;;7.82;4.32;;;;;;;18.58;66.07;96921.19;2090321;28;20537;-50
2023/01/19 00:06:36;;;;;;;10.95;4.75;;;;;;;18.58;66.13;96915.81;2087320;28;20042;-46
2023/01/19 00:07:37;;;;;;;12.23;4.80;;;;;;;18.59;65.66;96922.03;2090873;28;20055;-48
2023/01/19 00:08:39;;;;;;;;;;;;;;;18.49;66.41;96928.84;2090429;28;20052;-49
2023/01/19 00:09:40;;;;;;;10.38;4.80;;;;;;;18.52;65.94;96936.41;2089439;28;19935;-48
2023/01/19 00:10:41;;;;;;;;;;;;;;;18.44;66.49;96944.06;2089812;28;20155;-46
2023/01/19 00:11:44;;;;;;;;;;;;;;;18.39;66.73;96944.81;2088704;28;20470;-49
2023/01/19 00:12:45;;;;;;;9.23;4.10;;;;;;;18.47;66.32;96951.63;2089237;28;20562;-47
2023/01/19 00:13:52;;;;;;;;;;;;;;;18.41;66.31;96956.09;2089999;28;20055;-50
2023/01/19 00:14:53;;;;;;;7.00;4.03;;;;;;;18.49;66.17;96957.56;2091313;28;19966;-49
2023/01/19 00:15:54;;;;;;;;;;;;;;;18.43;66.67;96955.88;2094200;28;20054;-48
2023/01/19 00:16:56;;;;;;;10.45;4.28;;;;;;;18.47;66.57;96952.47;2088633;28;19960;-50
2023/01/19 00:17:57;;;;;;;11.57;5.18;;;;;;;18.52;66.26;96946.34;2084005;28;20040;-48
2023/01/19 00:18:59;;;;;;;;;;;;;;;18.44;66.42;96950.28;2090390;28;20070;-51
2023/01/19 00:19:59;;;;;;;;;;;;;;;18.38;66.49;96951.22;2087171;28;19928;-46
2023/01/19 00:21:01;;;;;;;8.73;4.00;;;;;;;18.43;66.45;96958.56;2088566;28;19955;-48
2023/01/19 00:22:04;;;;;;;7.63;3.88;;;;;;;18.47;66.05;96957.84;2089108;28;20060;-51
2023/01/19 00:23:06;;;;;;;9.27;3.70;;;;;;;18.52;66.16;96957.09;2088525;28;20578;-47
2023/01/19 00:24:10;;;;;;;12.63;4.50;;;;;;;18.52;65.56;96963.25;2087926;28;20134;-47
2023/01/19 00:25:11;;;;;;;7.97;4.38;;;;;;;18.48;66.03;96972.06;2087276;28;20048;-48
2023/01/19 00:26:13;;;;;;;;;;;;;;;18.40;66.17;96972.47;2089341;28;20066;-46
2023/01/19 00:27:15;;;;;;;9.00;4.25;;;;;;;18.44;66.15;96961.00;2091507;28;19928;-51
2023/01/19 00:28:18;;;;;;;6.30;4.07;;;;;;;18.47;65.73;96965.06;2088704;28;20063;-49
2023/01/19 00:29:19;;;;;;;9.02;5.00;;;;;;;18.48;65.99;96969.38;2089097;28;20048;-48
2023/01/19 00:30:20;;;;;;;;;;;;;;;18.37;66.04;96979.13;2090100;28;20565;-47
2023/01/19 00:31:21;;;;;;;6.63;4.45;;;;;;;18.41;66.21;96982.13;2094595;28;19924;-49
2023/01/19 00:32:23;;;;;;;8.55;4.10;;;;;;;18.42;65.97;96984.59;2091097;28;20052;-48
2023/01/19 00:33:24;;;;;;;5.43;3.55;;;;;;;18.44;66.01;96974.44;2090762;28;20055;-47
2023/01/19 00:34:25;;;;;;;;;;;;;;;18.37;66.05;96960.34;2089315;28;20134;-49
2023/01/19 00:35:26;;;;;;;;;;;;;;;18.30;66.51;96946.25;2092499;28;19931;-46
2023/01/19 00:36:28;;;;;;;6.57;4.03;;;;;;;18.32;66.27;96944.13;2088376;28;20017;-48
2023/01/19 00:37:29;;;;;;;11.43;4.38;;;;;;;18.38;66.23;96929.75;2088471;28;20055;-49
2023/01/19 00:38:30;;;;;;;;;;;;;;;18.29;66.30;96918.59;2090241;28;20054;-47
2023/01/19 00:39:31;;;;;;;4.72;3.55;;;;;;;18.33;66.27;96915.44;2088325;28;19929;-46
2023/01/19 00:40:33;;;;;;;;;;;;;;;18.29;66.39;96915.09;2087098;28;20052;-46
2023/01/19 00:42:55;;;;;;;5.85;4.20;;;;;;;18.26;66.59;96921.78;2088369;28;19924;-49
2023/01/19 00:43:56;;;;;;;7.35;4.07;;;;;;;18.32;66.30;96930.72;2087891;28;20041;-47
2023/01/19 00:44:57;;;;;;;;;;;;;;;18.24;66.25;96931.94;2094669;28;20134;-48
2023/01/19 00:45:58;;;;;;;5.87;3.30;;;;;;;18.28;66.31;96943.00;2088917;28;19943;-47
2023/01/19 00:46:59;;;;;;;7.85;4.10;;;;;;;18.29;66.41;96945.44;2085982;28;21033;-48
2023/01/19 00:48:02;;;;;;;6.63;4.18;;;;;;;18.33;66.12;96959.22;2087083;28;20063;-49
2023/01/19 00:49:03;;;;;;;6.40;3.83;;;;;;;18.36;66.06;96958.72;2088685;28;20998;-49
2023/01/19 00:50:06;;;;;;;7.22;4.25;;;;;;;18.37;66.31;96981.81;2087759;28;20075;-47
2023/01/19 00:51:08;;;;;;;11.00;5.32;;;;;;;18.38;66.13;96980.75;2084852;28;20052;-48
2023/01/19 00:52:09;;;;;;;5.03;3.92;;;;;;;18.37;66.19;96978.31;2088560;28;20044;-49
2023/01/19 00:53:11;;;;;;;5.15;3.65;;;;;;;18.37;66.30;96987.19;2094625;28;20071;-49
2023/01/19 00:54:12;;;;;;;5.88;3.72;;;;;;;18.36;66.26;96974.81;2094738;28;20051;-48
2023/01/19 00:55:14;;;;;;;;;;;;;;;18.24;66.59;96971.38;2094094;28;20048;-47
2023/01/19 00:56:16;;;;;;;5.45;3.67;;;;;;;18.25;66.26;96957.72;2096210;28;20385;-48
2023/01/19 00:57:18;;;;;;;8.95;4.43;;;;;;;18.28;66.24;96940.34;2095579;28;20716;-48
2023/01/19 00:58:21;;;;;;;8.50;3.90;;;;;;;18.30;66.40;96938.19;2097072;28;20055;-49
2023/01/19 00:59:24;;;;;;;7.07;3.33;;;;;;;18.30;65.97;96947.09;2096971;28;20114;-51
2023/01/19 01:00:25;;;;;;;7.65;4.10;;;;;;;18.32;66.00;96952.19;2095306;28;20104;-46
2023/01/19 01:01:27;;;;;;;;;;;;;;;18.22;66.59;96946.63;2097536;28;20056;-47
2023/01/19 01:02:27;;;;;;;;;;;;;;;18.08;66.91;96936.22;2098911;28;19931;-46
2023/01/19 01:03:29;;;;;;;6.83;3.30;;;;;;;18.14;67.05;96939.00;2095685;28;20381;-49
2023/01/19 01:04:30;;;;;;;8.63;4.00;;;;;;;18.19;66.64;96936.41;2094418;28;20054;-49
2023/01/19 01:05:31;;;;;;;;;;;;;;;18.12;66.77;96935.75;2095780;28;20585;-49
2023/01/19 01:06:32;;;;;;;;;;;;;;;18.03;66.74;96941.50;2095796;28;20020;-47
2023/01/19 01:07:39;;;;;;;7.33;3.80;;;;;;;18.09;67.01;96942.41;2095275;28;20385;-47
2023/01/19 01:08:40;;;;;;;5.78;3.90;;;;;;;18.16;66.69;96952.97;2095838;28;20289;-48
2023/01/19 01:09:41;;;;;;;;;;;;;;;18.07;66.87;96960.63;2097282;28;20094;-47
2023/01/19 01:10:42;;;;;;;9.00;4.80;;;;;;;18.11;66.77;96950.19;2095795;28;19943;-47
2023/01/19 01:11:44;;;;;;;;;;;;;;;18.05;66.87;96939.41;2095467;28;20047;-48
2023/01/19 01:12:45;;;;;;;8.93;4.13;;;;;;;18.09;66.75;96932.50;2095202;28;19920;-46
2023/01/19 01:13:49;;;;;;;6.60;3.85;;;;;;;18.16;66.84;96926.16;2095914;28;20063;-48
2023/01/19 01:14:50;;;;;;;4.53;3.30;;;;;;;18.18;66.45;96929.41;2096160;28;20055;-46
2023/01/19 01:15:52;;;;;;;;;;;;;;;18.05;66.82;96934.03;2098388;28;20640;-50
2023/01/19 01:16:53;;;;;;;4.78;2.97;;;;;;;18.10;66.88;96933.28;2096228;28;19943;-46
2023/01/19 01:17:55;;;;;;;6.05;3.15;;;;;;;18.14;66.80;96933.66;2093373;28;20051;-46
2023/01/19 01:18:56;;;;;;;6.28;4.60;;;;;;;18.15;66.60;96943.31;2095907;28;20040;-47
2023/01/19 01:19:58;;;;;;;;;;;;;;;18.01;66.85;96946.28;2095528;28;20058;-47
2023/01/19 01:21:03;;;;;;;7.68;3.75;;;;;;;18.06;66.82;96948.25;2095449;28;19924;-48
2023/01/19 01:22:05;;;;;;;3.63;2.80;;;;;;;18.08;66.55;96946.97;2095860;28;20043;-48
2023/01/19 01:23:05;;;;;;;5.28;3.22;;;;;;;18.12;66.74;96962.59;2094388;28;20077;-48
2023/01/19 01:24:07;;;;;;;;;;;;;;;17.99;66.89;96959.13;2092876;28;20323;-46
2023/01/19 01:25:09;;;;;;;5.55;3.47;;;;;;;18.01;66.95;96961.56;2086738;28;19924;-47
2023/01/19 01:26:10;;;;;;;7.13;3.42;;;;;;;18.07;66.74;96955.25;2087804;28;20064;-46
2023/01/19 01:27:12;;;;;;;7.00;3.60;;;;;;;18.06;66.71;96940.22;2089702;28;20048;-48
2023/01/19 01:28:13;;;;;;;6.90;3.42;;;;;;;18.06;66.60;96930.28;2089895;28;20049;-49
2023/01/19 01:29:16;;;;;;;7.72;3.33;;;;;;;18.04;66.70;96921.66;2088414;28;21145;-48
2023/01/19 01:30:19;;;;;;;5.72;3.55;;;;;;;18.07;66.88;96925.72;2086312;28;20143;-48
2023/01/19 01:31:20;;;;;;;6.18;3.30;;;;;;;18.07;66.53;96931.09;2091296;28;20819;-45
2023/01/19 01:32:21;;;;;;;;;;;;;;;17.98;66.93;96940.59;2085050;28;20054;-46
2023/01/19 01:33:23;;;;;;;6.32;2.97;;;;;;;18.00;66.60;96944.69;2091599;28;19927;-46
2023/01/19 01:34:25;;;;;;;4.07;2.72;;;;;;;18.03;66.48;96938.81;2085401;28;20055;-47
2023/01/19 01:35:26;;;;;;;4.53;3.13;;;;;;;18.04;66.43;96945.81;2087451;28;20053;-46
2023/01/19 01:36:32;;;;;;;;;;;;;;;17.92;66.86;96953.09;2088502;28;20048;-46
2023/01/19 01:37:33;;;;;;;4.63;2.80;;;;;;;17.97;66.61;96949.69;2092188;28;19936;-46
2023/01/19 01:38:34;;;;;;;;;;;;;;;17.84;67.23;96953.50;2086738;28;20497;-47
2023/01/19 01:39:35;;;;;;;8.13;3.50;;;;;;;17.90;66.91;96954.41;2088045;28;19931;-47
2023/01/19 01:40:39;;;;;;;;;;;;;;;17.80;66.96;96952.31;2087189;28;21371;-47
2023/01/19 01:41:39;;;;;;;6.80;3.72;;;;;;;17.85;66.40;96955.91;2086647;28;20007;-48
2023/01/19 01:42:41;;;;;;;;;;;;;;;17.76;67.74;96956.50;2089095;28;20149;-47
2023/01/19 01:43:45;;;;;;;6.15;3.10;;;;;;;17.84;67.52;96953.50;2087236;28;19924;-48
2023/01/19 01:44:52;;;;;;;5.88;3.40;;;;;;;17.88;66.87;96951.94;2092264;28;20040;-48
2023/01/19 01:45:54;;;;;;;6.57;2.95;;;;;;;17.93;66.87;96959.28;2092088;28;20044;-47
2023/01/19 01:46:56;;;;;;;4.43;3.13;;;;;;;17.93;66.46;96954.72;2083608;28;20063;-46
2023/01/19 01:48:07;;;;;;;8.10;3.10;;;;;;;17.95;66.78;96960.66;2086000;28;23012;-47
2023/01/19 01:49:12;;;;;;;;;;;;;;;17.80;66.91;96960.38;2090965;28;20071;-47
2023/01/19 01:50:16;;;;;;;5.57;3.13;;;;;;;17.83;67.01;96965.28;2086872;28;19924;-47
2023/01/19 01:51:24;;;;;;;5.55;3.08;;;;;;;17.88;66.89;96965.34;2085692;28;20056;-48
2023/01/19 01:52:28;;;;;;;4.70;2.90;;;;;;;17.88;66.79;96973.41;2085947;28;20068;-48
2023/01/19 01:53:32;;;;;;;4.30;3.20;;;;;;;17.88;66.96;96969.91;2086412;28;20079;-47
2023/01/19 01:54:33;;;;;;;6.57;2.92;;;;;;;17.88;66.53;96973.41;2087175;28;20056;-47
2023/01/19 01:55:37;;;;;;;;;;;;;;;17.77;66.68;96966.97;2086525;28;20091;-47
2023/01/19 01:56:41;;;;;;;7.47;3.20;;;;;;;17.81;66.95;96964.69;2089818;28;19936;-48
2023/01/19 01:57:48;;;;;;;4.63;3.30;;;;;;;17.83;66.67;96960.72;2087804;28;20044;-47
2023/01/19 01:58:49;;;;;;;8.55;3.60;;;;;;;17.82;66.23;96952.91;2092465;28;20052;-47
2023/01/19 01:59:54;;;;;;;7.28;3.72;;;;;;;17.85;66.91;96941.69;2086887;28;20052;-48
2023/01/19 02:03:37;;;;;;;4.75;2.85;;;;;;;17.77;66.79;96939.34;2086934;28;20100;-46
2023/01/19 02:04:39;;;;;;;;;;;;;;;17.66;67.48;96938.34;2089536;28;20048;-49
2023/01/19 02:05:42;;;;;;;5.93;2.70;;;;;;;17.69;67.11;96934.38;2085853;28;19924;-46
2023/01/19 02:13:30;;;;;;;6.38;3.15;;;;;;;17.70;66.79;96955.59;2084770;28;20040;-46
2023/01/19 02:14:33;;;;;;;7.38;2.83;;;;;;;17.71;66.79;96967.13;2092320;28;20651;-47
2023/01/19 02:15:36;;;;;;;5.28;3.13;;;;;;;17.74;66.56;96959.41;2088862;28;20072;-47
2023/01/19 02:16:37;;;;;;;6.80;3.13;;;;;;;17.71;66.92;96961.78;2090257;28;20696;-47
2023/01/19 02:17:39;;;;;;;;;;;;;;;17.60;66.98;96955.38;2087289;28;20051;-47
2023/01/19 02:18:40;;;;;;;6.53;3.60;;;;;;;17.64;66.90;96952.00;2089679;28;19924;-47
2023/01/19 02:19:43;;;;;;;4.95;2.70;;;;;;;17.67;66.75;96945.34;2089619;28;20048;-47
2023/01/19 02:20:52;;;;;;;5.13;3.08;;;;;;;17.68;66.69;96935.44;2086747;28;20044;-45
2023/01/19 02:22:02;;;;;;;6.32;4.00;;;;;;;17.67;66.44;96923.91;2087862;28;20048;-48
2023/01/19 02:23:07;;;;;;;5.13;2.80;;;;;;;17.67;66.70;96929.28;2087637;28;20063;-49
2023/01/19 02:24:11;;;;;;;6.82;3.25;;;;;;;17.66;66.54;96922.25;2086768;28;20110;-45
2023/01/19 02:25:13;;;;;;;4.68;2.70;;;;;;;17.67;66.56;96925.78;2088561;28;20401;-47
2023/01/19 02:26:18;;;;;;;3.95;2.75;;;;;;;17.65;66.55;96932.19;2087138;28;20164;-46
2023/01/19 02:27:20;;;;;;;6.13;3.35;;;;;;;17.65;66.66;96926.81;2085823;28;20050;-46
2023/01/19 02:28:21;;;;;;;6.28;2.65;;;;;;;17.62;66.77;96929.97;2088658;28;20179;-47
2023/01/19 02:29:25;;;;;;;6.15;2.72;;;;;;;17.62;66.90;96921.94;2087889;28;20048;-45
2023/01/19 02:30:27;;;;;;;5.72;2.90;;;;;;;17.61;66.93;96919.50;2087353;28;20056;-46
2023/01/19 02:31:31;;;;;;;3.97;2.78;;;;;;;17.60;66.68;96918.66;2089239;28;20151;-49
2023/01/19 02:32:33;;;;;;;4.22;3.70;;;;;;;17.61;66.92;96912.28;2085616;28;20921;-48
2023/01/19 02:33:34;;;;;;;6.05;2.67;;;;;;;17.60;66.71;96913.31;2092514;28;20048;-46
2023/01/19 02:34:35;;;;;;;;;;;;;;;17.47;67.36;96902.88;2086342;28;20055;-46
2023/01/19 02:35:39;;;;;;;14.25;3.75;;;;;;;17.53;67.07;96901.94;2088069;28;20362;-45
2023/01/19 02:36:48;;;;;;;3.20;2.17;;;;;;;17.51;67.45;96898.66;2086905;28;20530;-46
2023/01/19 02:37:51;;;;;;;4.07;2.30;;;;;;;17.52;67.13;96904.84;2086302;28;20406;-46
2023/01/19 02:38:56;;;;;;;4.03;2.10;;;;;;;17.53;67.21;96907.28;2088025;28;20076;-48
2023/01/19 02:40:01;;;;;;;3.35;2.22;;;;;;;17.56;66.98;96917.53;2085783;28;20044;-48
2023/01/19 02:41:07;;;;;;;7.30;3.00;;;;;;;17.58;67.02;96906.59;2086894;28;20510;-46
2023/01/19 02:42:12;;;;;;;3.35;2.50;;;;;;;17.55;66.61;96907.88;2085284;28;20101;-47
2023/01/19 02:43:16;;;;;;;3.92;2.78;;;;;;;17.55;66.95;96905.19;2086483;28;20392;-47
2023/01/19 02:44:19;;;;;;;6.00;2.80;;;;;;;17.55;66.43;96910.56;2085989;28;20052;-46
2023/01/19 02:45:23;;;;;;;4.75;2.80;;;;;;;17.55;66.73;96907.88;2089734;28;20080;-46
2023/01/19 02:46:24;;;;;;;3.45;2.33;;;;;;;17.54;66.83;96910.78;2089058;28;20075;-47
2023/01/19 02:47:26;;;;;;;8.38;2.40;;;;;;;17.52;66.45;96904.84;2089002;28;20115;-48
2023/01/19 02:48:27;;;;;;;6.93;2.58;;;;;;;17.53;66.86;96899.25;2085172;28;20063;-47
2023/01/19 02:49:29;;;;;;;;;;;;;;;17.39;67.04;96901.38;2092837;28;20052;-46
2023/01/19 02:50:37;;;;;;;4.28;2.70;;;;;;;17.40;67.23;96897.66;2094046;28;19928;-46
2023/01/19 02:51:39;;;;;;;5.55;2.90;;;;;;;17.43;67.12;96899.84;2093529;28;20044;-48
2023/01/19 02:52:40;;;;;;;5.13;2.60;;;;;;;17.44;67.01;96889.97;2092729;28;20049;-47
2023/01/19 02:53:54;;;;;;;;;;;;;;;17.35;67.18;96896.72;2095868;28;20052;-47
2023/01/19 02:55:07;;;;;;;3.70;2.33;;;;;;;17.34;67.58;96903.16;2092360;28;19925;-47
2023/01/19 02:56:29;;;;;;;4.45;2.13;;;;;;;17.34;67.40;96895.13;2093774;28;20082;-47
2023/01/19 02:57:54;;;;;;;6.70;2.85;;;;;;;17.33;67.38;96896.16;2093631;28;20104;-49
2023/01/19 02:59:03;;;;;;;6.65;2.55;;;;;;;17.34;67.21;96889.75;2093802;28;20917;-48
2023/01/19 03:00:21;;;;;;;4.15;2.42;;;;;;;17.37;67.27;96891.94;2095791;28;20044;-46
2023/01/19 03:01:32;;;;;;;5.97;2.13;;;;;;;17.39;67.54;96901.38;2093497;28;20048;-46
2023/01/19 03:02:46;;;;;;;7.90;2.55;;;;;;;17.34;66.72;96895.13;2096267;28;20055;-46
2023/01/19 03:03:54;;;;;;;4.15;2.30;;;;;;;17.36;67.18;96890.34;2096190;28;20060;-47
2023/01/19 03:05:11;;;;;;;5.32;2.63;;;;;;;17.36;67.25;96893.81;2097548;28;20040;-46
2023/01/19 03:06:20;;;;;;;4.30;2.88;;;;;;;17.37;67.15;96891.94;2096306;28;20051;-48
2023/01/19 03:07:34;;;;;;;2.95;1.95;;;;;;;17.34;67.33;96903.16;2096166;28;20097;-49
2023/01/19 03:08:50;;;;;;;3.10;2.13;;;;;;;17.33;66.85;96901.53;2094035;28;20486;-47
2023/01/19 03:09:56;;;;;;;4.22;2.10;;;;;;;17.35;67.05;96905.56;2097008;28;20048;-48
2023/01/19 03:11:02;;;;;;;5.00;2.63;;;;;;;17.35;67.05;96904.78;2097012;28;20063;-47
2023/01/19 03:12:12;;;;;;;4.93;2.53;;;;;;;17.33;67.02;96909.56;2096041;28;20105;-48
2023/01/19 03:13:19;;;;;;;6.38;2.83;;;;;;;17.31;67.21;96914.34;2096725;28;20095;-46
2023/01/19 03:14:24;;;;;;;8.23;2.38;;;;;;;17.26;67.15;96912.38;2096424;28;20139;-47
2023/01/19 03:15:32;;;;;;;2.63;1.75;;;;;;;17.28;67.18;96904.09;2097357;28;20046;-48
2023/01/19 03:16:37;;;;;;;4.70;2.20;;;;;;;17.29;67.01;96908.41;2098072;28;20055;-51
2023/01/19 03:17:40;;;;;;;4.65;2.45;;;;;;;17.28;67.38;96910.28;2095286;28;20055;-49
2023/01/19 03:18:45;;;;;;;4.00;2.50;;;;;;;17.29;67.22;96905.72;2093616;28;20056;-46
2023/01/19 03:19:49;;;;;;;3.75;2.38;;;;;;;17.29;67.18;96903.03;2089224;28;20048;-47
2023/01/19 03:20:53;;;;;;;5.13;2.47;;;;;;;17.30;66.84;96897.47;2093601;28;20055;-47
2023/01/19 03:21:58;;;;;;;4.40;2.03;;;;;;;17.29;66.95;96901.16;2095681;28;20066;-48
2023/01/19 03:23:02;;;;;;;3.70;2.60;;;;;;;17.26;67.07;96904.31;2087351;28;22020;-50
2023/01/19 03:24:08;;;;;;;14.65;2.42;;;;;;;17.29;67.08;96906.53;2086538;28;20052;-49
2023/01/19 03:25:09;;;;;;;4.43;2.65;;;;;;;17.28;67.43;96901.44;2087620;28;20037;-48
2023/01/19 03:26:14;;;;;;;;;;;;;;;17.18;67.47;96900.16;2087158;28;20684;-47
2023/01/19 03:27:19;;;;;;;5.53;2.58;;;;;;;17.18;67.73;96902.00;2091051;28;19931;-48
2023/01/19 03:28:24;;;;;;;5.32;2.35;;;;;;;17.20;67.56;96913.31;2084766;28;20952;-48
2023/01/19 03:29:30;;;;;;;2.85;1.83;;;;;;;17.20;67.44;96913.31;2087928;28;20043;-47
2023/01/19 03:30:38;;;;;;;11.63;2.63;;;;;;;17.20;67.34;96914.13;2086847;28;20750;-49
2023/01/19 03:31:40;;;;;;;7.13;3.45;;;;;;;17.23;67.25;96922.75;2087023;28;20048;-48
2023/01/19 03:32:48;;;;;;;6.55;2.33;;;;;;;17.25;67.11;96931.38;2086235;28;20052;-49
2023/01/19 03:33:53;;;;;;;4.70;2.22;;;;;;;17.24;66.95;96941.25;2087827;28;20058;-48
2023/01/19 03:34:56;;;;;;;6.32;2.50;;;;;;;17.25;66.85;96958.16;2094926;28;20572;-47
2023/01/19 03:36:04;;;;;;;6.07;2.97;;;;;;;17.25;66.96;96990.31;2094455;28;20054;-47
2023/01/19 03:37:07;;;;;;;6.68;2.70;;;;;;;17.24;67.05;96994.03;2093641;28;20120;-47
2023/01/19 03:38:13;;;;;;;6.28;2.65;;;;;;;17.22;67.01;96980.03;2092927;28;20052;-49
2023/01/19 03:39:21;;;;;;;24.13;2.80;;;;;;;17.19;67.20;96979.50;2087858;28;20403;-47
2023/01/19 03:40:25;;;;;;;3.17;2.08;;;;;;;17.17;67.34;96986.13;2085292;28;20044;-48
2023/01/19 03:41:31;;;;;;;3.75;2.53;;;;;;;17.13;67.26;97004.53;2088522;28;20048;-46
2023/01/19 03:42:34;;;;;;;3.30;2.03;;;;;;;17.16;66.97;96998.72;2087601;28;20068;-50
2023/01/19 03:43:39;;;;;;;6.43;2.17;;;;;;;17.15;67.10;96991.69;2089329;28;20048;-51
2023/01/19 03:44:42;;;;;;;4.85;2.53;;;;;;;17.16;66.94;96990.69;2091287;28;20958;-46
2023/01/19 03:45:45;;;;;;;5.20;2.70;;;;;;;17.16;67.04;97000.56;2087075;28;20083;-47
2023/01/19 03:46:46;;;;;;;3.55;2.25;;;;;;;17.13;66.96;97003.69;2087490;28;20059;-48
2023/01/19 03:47:49;;;;;;;4.38;2.28;;;;;;;17.16;66.95;96997.88;2092368;28;20048;-48
2023/01/19 03:48:50;;;;;;;5.50;2.25;;;;;;;17.15;67.04;96997.06;2093486;28;20051;-48
2023/01/19 03:49:53;;;;;;;5.22;1.90;;;;;;;17.16;67.06;96998.72;2092227;28;20105;-48
2023/01/19 03:50:54;;;;;;;3.92;2.33;;;;;;;17.15;67.17;97001.59;2093650;28;20844;-49
2023/01/19 03:51:57;;;;;;;4.60;2.35;;;;;;;17.15;66.86;96988.22;2095544;28;20044;-50
2023/01/19 03:53:05;;;;;;;3.45;2.33;;;;;;;17.16;67.06;96979.97;2095163;28;20081;-45
2023/01/19 03:54:09;;;;;;;6.18;2.67;;;;;;;17.11;67.80;96958.41;2093838;28;20044;-47
2023/01/19 03:55:11;;;;;;;3.72;1.90;;;;;;;17.10;67.73;96961.31;2096377;28;20407;-46
2023/01/19 03:56:18;;;;;;;5.22;2.10;;;;;;;17.10;67.30;96964.78;2094594;28;20058;-47
2023/01/19 03:57:21;;;;;;;5.45;2.10;;;;;;;17.10;67.21;96977.38;2094281;28;20053;-49
2023/01/19 03:58:22;;;;;;;3.95;2.08;;;;;;;17.12;67.15;96981.47;2093710;28;20056;-49
2023/01/19 03:59:23;;;;;;;7.25;2.15;;;;;;;17.11;67.31;96979.84;2096391;28;20067;-46
2023/01/19 04:00:25;;;;;;;;;;;;;;;17.01;67.34;96974.25;2097291;28;20626;-49
2023/01/19 04:01:25;;;;;;;4.15;2.95;;;;;;;17.03;67.49;96964.13;2094738;28;19924;-47
2023/01/19 04:02:27;;;;;;;;;;;;;;;16.92;67.48;96949.69;2094287;28;20494;-46
2023/01/19 04:03:28;;;;;;;9.50;2.33;;;;;;;16.95;67.52;96943.03;2089534;28;19924;-49
2023/01/19 04:04:29;;;;;;;;;;;;;;;16.88;67.65;96934.31;2090758;28;20056;-46
2023/01/19 04:05:30;;;;;;;4.93;2.20;;;;;;;16.93;67.66;96927.19;2091177;28;19935;-49
2023/01/19 04:06:32;;;;;;;5.18;2.30;;;;;;;16.98;67.42;96927.31;2091711;28;20460;-47
2023/01/19 04:07:33;;;;;;;16.48;3.33;;;;;;;17.02;67.59;96933.03;2086861;28;20047;-48
2023/01/19 04:08:35;;;;;;;;;;;;;;;16.92;67.53;96930.94;2087987;28;20500;-47
2023/01/19 04:09:36;;;;;;;4.05;1.88;;;;;;;16.97;67.56;96935.59;2089327;28;20310;-50
2023/01/19 04:10:38;;;;;;;;;;;;;;;16.85;67.99;96932.09;2087141;28;20063;-50
2023/01/19 04:11:38;;;;;;;4.70;2.08;;;;;;;16.91;67.74;96925.78;2090509;28;19935;-47
2023/01/19 04:12:41;;;;;;;;;;;;;;;16.81;67.85;96922.91;2085586;28;20056;-48
2023/01/19 04:13:42;;;;;;;6.03;2.65;;;;;;;16.86;67.92;96931.06;2091576;28;19924;-50
2023/01/19 04:14:43;;;;;;;;;;;;;;;16.80;67.99;96930.13;2090525;28;20060;-49
2023/01/19 04:15:44;;;;;;;4.82;2.08;;;;;;;16.86;67.97;96915.00;2089992;28;19924;-48
2023/01/19 04:16:46;;;;;;;;;;;;;;;16.76;67.91;96886.09;2091270;28;20650;-46
2023/01/19 04:17:47;;;;;;;5.43;2.00;;;;;;;16.81;67.78;96864.81;2089683;28;19970;-48
2023/01/19 04:18:48;;;;;;;;;;;;;;;16.74;68.21;96851.53;2087948;28;20452;-48
2023/01/19 04:19:49;;;;;;;6.28;1.98;;;;;;;16.79;68.17;96842.00;2089350;28;19924;-47
2023/01/19 04:20:50;;;;;;;;;;;;;;;16.71;68.03;96846.63;2089500;28;20063;-48
2023/01/19 04:21:51;;;;;;;4.40;1.90;;;;;;;16.80;67.88;96852.50;2089808;28;19930;-50
2023/01/19 04:22:53;;;;;;;;;;;;;;;16.75;67.86;96868.41;2090385;28;21015;-47
2023/01/19 04:23:53;;;;;;;;;;;;;;;16.70;68.21;96866.44;2087789;28;19932;-48
2023/01/19 04:24:55;;;;;;;3.50;1.93;;;;;;;16.74;68.11;96866.75;2088767;28;20095;-49
2023/01/19 04:25:56;;;;;;;6.90;1.90;;;;;;;16.80;67.73;96870.41;2091046;28;20706;-47
2023/01/19 04:26:58;;;;;;;4.65;1.90;;;;;;;16.86;67.41;96880.19;2088552;28;20113;-49
2023/01/19 04:28:00;;;;;;;12.68;2.30;;;;;;;16.87;67.58;96885.28;2091514;28;20059;-48
2023/01/19 04:29:03;;;;;;;10.05;2.97;;;;;;;16.88;67.54;96883.44;2088210;28;20041;-47
2023/01/19 04:30:04;;;;;;;2.97;1.80;;;;;;;16.88;67.64;96899.50;2088243;28;20500;-47
2023/01/19 04:31:08;;;;;;;5.88;2.13;;;;;;;16.88;67.33;96899.50;2090822;28;20552;-47
2023/01/19 04:32:09;;;;;;;5.82;2.35;;;;;;;16.89;67.35;96907.31;2080012;28;28056;-47
2023/01/19 04:33:10;;;;;;;;;;;;;;;16.78;67.70;96912.69;2090155;28;20178;-48
2023/01/19 04:34:11;;;;;;;4.15;1.85;;;;;;;16.81;67.36;96915.69;2087797;28;19924;-49
2023/01/19 04:35:12;;;;;;;;;;;;;;;16.73;68.28;96916.00;2089889;28;20164;-49
2023/01/19 04:36:13;;;;;;;3.60;1.85;;;;;;;16.77;68.07;96916.38;2091809;28;19931;-48
2023/01/19 04:37:14;;;;;;;;;;;;;;;16.75;68.39;96920.09;2093841;28;20052;-47
2023/01/19 04:38:15;;;;;;;4.03;2.17;;;;;;;16.81;68.28;96917.56;2089657;28;20944;-50
2023/01/19 04:39:17;;;;;;;;;;;;;;;16.77;68.65;96919.06;2092392;28;20058;-47
2023/01/19 04:40:17;;;;;;;3.97;1.85;;;;;;;16.88;68.37;96926.28;2092339;28;19928;-49
2023/01/19 04:41:19;;;;;;;;;;;;;;;16.84;68.51;96925.13;2094636;28;20052;-50
2023/01/19 04:42:20;;;;;;;6.13;2.05;;;;;;;16.96;68.41;96923.25;2090705;28;19920;-49
2023/01/19 04:43:23;;;;;;;;;;;;;;;16.96;68.42;96917.88;2091617;28;20079;-48
2023/01/19 04:44:24;;;;;;;3.65;2.13;;;;;;;17.09;68.12;96927.53;2093366;28;20286;-50
2023/01/19 04:45:25;;;;;;;;;;;;;;;17.11;68.08;96925.47;2094558;28;20059;-46
2023/01/19 04:46:26;;;;;;;4.22;1.90;;;;;;;17.17;67.91;96936.03;2095236;28;22036;-48
2023/01/19 04:47:27;;;;;;;;;;;;;;;17.21;67.81;96944.41;2094904;28;20058;-48
2023/01/19 04:48:28;;;;;;;4.15;1.35;;;;;;;17.29;67.89;96944.03;2087982;28;19928;-47
2023/01/19 04:49:30;;;;;;;;;;;;;;;17.28;68.04;96946.97;2088940;28;21009;-50
2023/01/19 04:50:31;;;;;;;6.03;1.95;;;;;;;17.36;67.79;96958.13;2086144;28;19924;-46
2023/01/19 04:51:33;;;;;;;2.75;1.50;;;;;;;17.42;67.64;96953.69;2092044;28;20079;-48
2023/01/19 04:52:34;;;;;;;5.32;1.75;;;;;;;17.50;67.46;96958.69;2095161;28;20981;-49
2023/01/19 04:53:36;;;;;;;6.60;1.83;;;;;;;17.57;67.48;96963.91;2094506;28;20055;-47
2023/01/19 04:54:37;;;;;;;11.07;2.22;;;;;;;17.63;67.27;96960.28;2096253;28;20061;-50
2023/01/19 04:55:39;;;;;;;;;;;;;;;17.57;67.57;96967.41;2096144;28;20093;-48
2023/01/19 04:56:40;;;;;;;;;;;;;;;17.55;67.63;96971.38;2093930;28;19925;-46
2023/01/19 04:57:41;;;;;;;2.78;1.45;;;;;;;17.62;67.65;96972.88;2096718;28;19924;-46
2023/01/19 04:58:44;;;;;;;3.70;1.40;;;;;;;17.71;67.27;96975.19;2094903;28;20143;-51
2023/01/19 05:02:10;;;;;;;3.90;1.83;;;;;;;17.80;67.10;96987.19;2099196;23;20091;-91
2023/01/19 05:03:14;;;;;;;3.80;1.80;;;;;;;17.84;66.88;96989.16;2069484;28;20475;-87
2023/01/19 05:04:16;;;;;;;5.95;1.70;;;;;;;17.90;66.95;97006.16;2058643;28;20057;-88
2023/01/19 05:05:17;;;;;;;3.50;2.45;;;;;;;17.86;67.29;97013.06;2065370;28;20412;-86
2023/01/19 05:06:19;;;;;;;4.43;1.80;;;;;;;17.91;67.01;97010.47;2065292;28;20133;-90
2023/01/19 05:07:20;;;;;;;3.03;1.42;;;;;;;17.94;66.99;97012.69;2066807;28;20050;-87
2023/01/19 05:08:23;;;;;;;;;;;;;;;17.90;67.63;97024.94;2070380;28;20077;-87
2023/01/19 05:09:24;;;;;;;2.45;1.60;;;;;;;17.97;67.09;97017.59;2064295;28;19968;-87
2023/01/19 05:10:36;;;;;;;4.68;1.65;;;;;;;17.99;66.82;97014.66;2057572;28;20115;-86
2023/01/19 05:11:37;;;;;;;2.38;1.08;;;;;;;18.01;66.92;97013.34;2065122;28;20133;-89
2023/01/19 05:12:38;;;;;;;;;;;;;;;17.97;67.22;97009.53;2067801;28;20963;-86
2023/01/19 05:13:39;;;;;;;6.18;1.60;;;;;;;18.02;66.90;96998.88;2067533;28;19968;-87
2023/01/19 05:14:43;;;;;;;;;;;;;;;17.99;67.13;97002.03;2065995;28;20137;-86
2023/01/19 05:15:44;;;;;;;2.70;1.17;;;;;;;18.04;67.06;96994.09;2065794;28;19922;-85
2023/01/19 05:17:15;;;;;;;4.40;1.65;;;;;;;18.03;67.12;97000.53;2069052;28;20076;-88